Flight Track Log - Related Links

Times and Time Zones

All times are in EDT time to prevent confusion due to time zone crossing. See the FDX1410 flight status page for this flight to view local times or setup timezone preferences in your user account.

Time Position Orientation Groundspeed Altitude Reporting Facility
EDT Latitude Longitude Course Direction KTS MPH feet Rate Location/Type
Fri 03:52:50 AM 35.0139 -89.9869 180° South 165 190 1,300  Level FAA TRACON SMA TRACON (SMA)
Fri 03:53:31 AM 34.9819 -89.9869 183° South 164 189 2,200 2,000 Climbing FAA TRACON SMA TRACON (SMA)
Fri 03:54:11 AM 34.9378 -89.9894 181° South 221 254 4,000 2,700 Climbing FAA TRACON SMA TRACON (SMA)
Fri 03:54:51 AM 34.8939 -89.9900 179° South 240 276 5,800 2,775 Climbing FAA TRACON SMA TRACON (SMA)
Fri 03:55:31 AM 34.8456 -89.9894 179° South 255 293 7,700 2,400 Climbing FAA TRACON SMA TRACON (SMA)
Fri 03:56:11 AM 34.7928 -89.9881 152° Southeast 269 310 9,000 1,291 Climbing FAA TRACON SMA TRACON (SMA)
Fri 03:56:50 AM 34.7486 -89.9597 139° Southeast 281 323 9,400 1,350 Climbing FAA TRACON SMA TRACON (SMA)
Fri 03:57:31 AM 34.7075 -89.9158 137° Southeast 293 337 10,800 1,350 Climbing FAA TRACON SMA TRACON (SMA)
Fri 03:58:10 AM 34.6617 -89.8644 137° Southeast 334 384 11,200 600 Climbing FAA TRACON SMA TRACON (SMA)
Fri 03:58:51 AM 34.6086 -89.8053 138° Southeast 382 440 11,600 1,185 Climbing FAA TRACON SMA TRACON (SMA)
Fri 03:59:31 AM 34.5525 -89.7439 134° Southeast 399 459 12,800 1,800 Climbing FAA TRACON SMA TRACON (SMA)
Fri 04:00:01 AM 34.5089 -89.6892 128° Southeast 390 449 13,700 1,867 Climbing Memphis Center
Fri 04:01:01 AM 34.4353 -89.5739 129° Southeast 421 484 15,600 1,900 Climbing Memphis Center
Fri 04:02:01 AM 34.3594 -89.4589 128° Southeast 441 507 17,500 2,000 Climbing Memphis Center
Fri 04:03:01 AM 34.2811 -89.3392 129° Southeast 446 513 19,600 1,900 Climbing Memphis Center
Fri 04:04:01 AM 34.2031 -89.2219 130° Southeast 446 513 21,300 1,500 Climbing Memphis Center
Fri 04:05:01 AM 34.1183 -89.1003 131° Southeast 460 529 22,600 1,250 Climbing Memphis Center
Fri 04:06:01 AM 34.0314 -88.9811 130° Southeast 470 541 23,800 1,250 Climbing Memphis Center
Fri 04:07:01 AM 33.9403 -88.8525 131° Southeast 491 565 25,100 1,100 Climbing Memphis Center
Fri 04:08:01 AM 33.8617 -88.7436 131° Southeast 491 565 26,000 1,000 Climbing Memphis Center
Fri 04:09:01 AM 33.7681 -88.6131 131° Southeast 502 578 27,100 1,185 Climbing Memphis Center
Fri 04:10:43 AM 33.6089 -88.3911 130° Southeast 516 594 29,200 1,296 Climbing Atlanta Center
Fri 04:11:43 AM 33.5133 -88.2569 132° Southeast 521 600 30,600 1,400 Climbing Atlanta Center
Fri 04:12:43 AM 33.4214 -88.1331 130° Southeast 516 594 32,000 1,200 Climbing Atlanta Center
Fri 04:13:43 AM 33.3278 -88.0017 134° Southeast 516 594 33,000 1,200 Climbing Atlanta Center
Fri 04:14:43 AM 33.2294 -87.8781 137° Southeast 511 588 34,400 1,000 Climbing Atlanta Center
Fri 04:15:43 AM 33.1283 -87.7644 138° Southeast 501 577 35,000 300 Climbing Atlanta Center
Fri 04:16:43 AM 33.0233 -87.6533 136° Southeast 501 577 35,000  Level Atlanta Center
Fri 04:17:43 AM 32.9222 -87.5381 138° Southeast 506 582 35,000  Level Atlanta Center
Fri 04:18:43 AM 32.8169 -87.4250 138° Southeast 506 582 35,000  Level Atlanta Center
Fri 04:19:43 AM 32.7133 -87.3125 137° Southeast 511 588 35,000  Level Atlanta Center
Fri 04:20:43 AM 32.6078 -87.1975 138° Southeast 506 582 35,000  Level Atlanta Center
Fri 04:21:43 AM 32.5022 -87.0853 138° Southeast 506 582 35,000  Level Atlanta Center
Fri 04:22:43 AM 32.3983 -86.9736 138° Southeast 506 582 35,000  Level Atlanta Center
Fri 04:23:43 AM 32.2925 -86.8594 139° Southeast 511 588 35,000  Level Atlanta Center
Fri 04:24:43 AM 32.1844 -86.7481 139° Southeast 506 582 35,000 37 Level Atlanta Center
Fri 04:26:25 AM 31.9986 -86.5572 138° Southeast 529 609 35,100  Climbing Jacksonville Center
Fri 04:27:25 AM 31.8914 -86.4428 137° Southeast 529 609 35,000 -50 Descending Jacksonville Center
Fri 04:28:25 AM 31.7839 -86.3264 138° Southeast 524 603 35,000  Level Jacksonville Center
Fri 04:29:25 AM 31.6783 -86.2150 139° Southeast 518 596 35,000  Level Jacksonville Center
Fri 04:30:25 AM 31.5706 -86.1039 138° Southeast 518 596 35,000  Level Jacksonville Center
Fri 04:31:25 AM 31.4667 -85.9956 139° Southeast 518 596 35,000  Level Jacksonville Center
Fri 04:32:25 AM 31.3608 -85.8875 140° Southeast 518 596 35,000  Level Jacksonville Center
Fri 04:33:25 AM 31.2525 -85.7794 137° Southeast 518 596 35,000  Level Jacksonville Center
Fri 04:34:25 AM 31.1486 -85.6672 140° Southeast 518 596 35,000  Level Jacksonville Center
Fri 04:35:25 AM 31.0403 -85.5597 139° Southeast 518 596 35,000  Level Jacksonville Center
Fri 04:36:25 AM 30.9339 -85.4525 139° Southeast 518 596 35,000  Level Jacksonville Center
Fri 04:37:25 AM 30.8275 -85.3456 139° Southeast 518 596 35,000  Level Jacksonville Center
Fri 04:38:25 AM 30.7231 -85.2389 140° Southeast 518 596 35,000  Level Jacksonville Center
Fri 04:39:25 AM 30.6122 -85.1300 139° Southeast 518 596 35,000  Level Jacksonville Center
Fri 04:40:25 AM 30.5075 -85.0239 139° Southeast 518 596 35,000 -50 Level Jacksonville Center
Fri 04:41:25 AM 30.4008 -84.9156 141° Southeast 518 596 34,900  Descending Jacksonville Center
Fri 04:42:25 AM 30.2939 -84.8147 139° Southeast 518 596 35,000  Climbing Jacksonville Center
Fri 04:43:25 AM 30.1867 -84.7069 140° Southeast 518 596 34,900 -50 Descending Jacksonville Center
Fri 04:44:25 AM 30.0797 -84.6017 140° Southeast 518 596 34,900 50 Level Jacksonville Center
Fri 04:45:25 AM 29.9703 -84.4967 139° Southeast 518 596 35,000 50 Climbing Jacksonville Center
Fri 04:46:25 AM 29.8631 -84.3894 140° Southeast 518 596 35,000  Level Jacksonville Center
Fri 04:47:25 AM 29.7536 -84.2850 140° Southeast 518 596 35,000  Level Jacksonville Center
Fri 04:48:25 AM 29.6461 -84.1806 140° Southeast 518 596 35,000  Level Jacksonville Center
Fri 04:49:25 AM 29.5344 -84.0717 140° Southeast 518 596 35,000  Level Jacksonville Center
Fri 04:50:25 AM 29.4269 -83.9678 139° Southeast 518 596 35,000  Level Jacksonville Center
Fri 04:51:25 AM 29.3192 -83.8619 140° Southeast 518 596 35,000 -1,050 Level Jacksonville Center
Fri 04:52:25 AM 29.2114 -83.7586 141° Southeast 518 596 32,900 -2,850 Descending Jacksonville Center
Fri 04:53:25 AM 29.1014 -83.6556 139° Southeast 518 596 29,300 -3,450 Descending Jacksonville Center
Fri 04:54:25 AM 28.9936 -83.5478 140° Southeast 523 602 26,000 -3,050 Descending Jacksonville Center
Fri 04:55:25 AM 28.8875 -83.4475 140° Southeast 511 588 23,200 -2,700 Descending Jacksonville Center
Fri 04:56:25 AM 28.7836 -83.3497 141° Southeast 495 570 20,600 -2,610 Descending Jacksonville Center
Fri 04:58:45 AM 28.5500 -83.1333 132° Southeast 430 495 14,500 -2,310 Descending Tampa TRACON
Fri 04:59:45 AM 28.4833 -83.0500 127° Southeast 391 450 12,900 -1,700 Descending Tampa TRACON
Fri 05:00:45 AM 28.4167 -82.9500 139° Southeast 369 425 11,100 -1,750 Descending Tampa TRACON
Fri 05:01:45 AM 28.3500 -82.8833 130° Southeast 306 352 9,400 -1,900 Descending Tampa TRACON
Fri 05:02:45 AM 28.3000 -82.8167 130° Southeast 281 323 7,300 -1,650 Descending Tampa TRACON
Fri 05:03:45 AM 28.2500 -82.7500 130° Southeast 272 313 6,100 -1,200 Descending Tampa TRACON

Login

Don't have an account? Register now (free) for customized features, flight alerts, and more!